Time;durP1;ratioP1;P1;durP2;ratioP2;P2;SDS_P1;SDS_P2;PMS_P1;PMS_P2;Temp;Humidity;BMP_temperature;BMP_pressure;BME280_temperature;BME280_humidity;BME280_pressure;Samples;Min_cycle;Max_cycle;Signal;HPM_P1;HPM_P2
2023/04/04 00:02:13;;;;;;;;;;;;;;;;;;4926763;29;20359;-78
2023/04/04 00:04:39;;;;;;;;;;;;;;;;;;4919934;29;19919;-79
2023/04/04 00:07:05;;;;;;;;;;;;;;;;;;4926368;29;19926;-79
2023/04/04 00:09:31;;;;;;;;;;;;;;;;;;4927007;29;20115;-78
2023/04/04 00:11:57;;;;;;;;;;;;;;;;;;4926868;29;19950;-78
2023/04/04 00:14:23;;;;;;;;;;;;;;;;;;4926899;29;19938;-78
2023/04/04 00:16:49;;;;;;;;;;;;;;;;;;4919005;29;19915;-80
2023/04/04 00:19:17;;;;;;;;;;;;;;;;;;4921673;29;19915;-79
2023/04/04 00:21:43;;;;;;;;;;;;;;;;;;4919463;29;19934;-79
2023/04/04 00:24:09;;;;;;;;;;;;;;;;;;4917451;29;20827;-79
2023/04/04 00:26:35;;;;;;;;;;;;;;;;;;4927993;29;20326;-78
2023/04/04 00:29:01;;;;;;;;;;;;;;;;;;4915877;29;19914;-78
2023/04/04 00:31:27;;;;;;;;;;;;;;;;;;4912320;28;19918;-78
2023/04/04 00:33:52;;;;;;;;;;;;;;;;;;4931162;29;19919;-79
2023/04/04 00:36:18;;;;;;;;;;;;;;;;;;4923520;29;19950;-79
2023/04/04 00:38:44;;;;;;;;;;;;;;;;;;4931609;29;20286;-79
2023/04/04 00:41:11;;;;;;;;;;;;;;;;;;4926525;29;19930;-78
2023/04/04 00:43:37;;;;;;;;;;;;;;;;;;4929018;29;20412;-79
2023/04/04 00:46:02;;;;;;;;;;;;;;;;;;4932226;29;20005;-79
2023/04/04 00:48:28;;;;;;;;;;;;;;;;;;4928806;29;20619;-79
2023/04/04 00:50:55;;;;;;;;;;;;;;;;;;4924983;29;19977;-78
2023/04/04 00:53:22;;;;;;;;;;;;;;;;;;4923766;29;19926;-80
2023/04/04 00:55:47;;;;;;;;;;;;;;;;;;4922862;29;20777;-79
2023/04/04 00:58:13;;;;;;;;;;;;;;;;;;4926090;29;20380;-80
2023/04/04 01:00:39;;;;;;;;;;;;;;;;;;4922967;29;19969;-79
2023/04/04 01:03:06;;;;;;;;;;;;;;;;;;4922323;29;19914;-78
2023/04/04 01:05:32;;;;;;;;;;;;;;;;;;4931458;29;19941;-80
2023/04/04 01:07:58;;;;;;;;;;;;;;;;;;4927199;29;19957;-79
2023/04/04 01:10:24;;;;;;;;;;;;;;;;;;4933409;29;19918;-79
2023/04/04 01:12:50;;;;;;;;;;;;;;;;;;4931100;29;20037;-80
2023/04/04 01:15:16;;;;;;;;;;;;;;;;;;4924800;29;20001;-79
2023/04/04 01:17:43;;;;;;;;;;;-0.90;99.90;;;;;;4924783;29;20174;-79
2023/04/04 01:20:09;;;;;;;;;;;;;;;;;;4926279;29;19910;-78
2023/04/04 01:22:35;;;;;;;;;;;;;;;;;;4931346;29;19965;-78
2023/04/04 01:25:01;;;;;;;;;;;;;;;;;;4927858;29;19925;-78
2023/04/04 01:27:27;;;;;;;;;;;;;;;;;;4929430;29;19914;-78
2023/04/04 01:29:53;;;;;;;;;;;;;;;;;;4927945;29;19934;-79
2023/04/04 01:32:19;;;;;;;;;;;;;;;;;;4927448;29;19965;-78
2023/04/04 01:34:45;;;;;;;;;;;;;;;;;;4926650;29;19919;-79
2023/04/04 01:37:11;;;;;;;;;;;;;;;;;;4925796;29;19929;-78
2023/04/04 01:39:37;;;;;;;;;;;;;;;;;;4928226;29;20009;-79
2023/04/04 01:42:03;;;;;;;;;;;;;;;;;;4921309;29;19914;-79
2023/04/04 01:44:29;;;;;;;;;;;;;;;;;;4924290;28;19961;-79
2023/04/04 01:46:54;;;;;;;;;;;;;;;;;;4922765;29;19951;-79
2023/04/04 01:49:21;;;;;;;;;;;;;;;;;;4924813;29;20331;-78
2023/04/04 01:51:47;;;;;;;;;;;;;;;;;;4922820;29;19918;-78
2023/04/04 01:54:13;;;;;;;;;;;;;;;;;;4929233;29;19961;-78
2023/04/04 01:56:39;;;;;;;;;;;;;;;;;;4929528;29;19954;-79
2023/04/04 01:59:06;;;;;;;;;;;;;;;;;;4925063;29;19914;-79
2023/04/04 02:01:32;;;;;;;;;;;;;;;;;;4919662;29;19923;-79
2023/04/04 02:03:58;;;;;;;;;;;;;;;;;;4925378;29;19910;-78
2023/04/04 02:06:23;;;;;;;;;;;;;;;;;;4926641;29;19919;-78
2023/04/04 02:08:49;;;;;;;;;;;;;;;;;;4929595;29;19926;-78
2023/04/04 02:11:15;;;;;;;;;;;;;;;;;;4924739;29;20367;-79
2023/04/04 02:13:43;;;;;;;;;;;;;;;;;;4925719;29;19914;-78
2023/04/04 02:16:09;;;;;;;;;;;;;;;;;;4924490;29;19911;-78
2023/04/04 02:18:35;;;;;;;;;;;-1.90;99.90;;;;;;4927408;29;19962;-78
2023/04/04 02:21:00;;;;;;;;;;;;;;;;;;4926935;29;19953;-79
2023/04/04 02:23:26;;;;;;;;;;;;;;;;;;4922889;29;20001;-79
2023/04/04 02:25:52;;;;;;;;;;;;;;;;;;4920579;29;19949;-78
2023/04/04 02:28:18;;;;;;;;;;;;;;;;;;4921038;29;20686;-78
2023/04/04 02:30:44;;;;;;;;;;;;;;;;;;4920111;29;19921;-78
2023/04/04 02:33:11;;;;;;;;;;;;;;;;;;4920408;29;20367;-77
2023/04/04 02:35:36;;;;;;;;;;;;;;;;;;4942929;29;19898;-78
2023/04/04 02:38:02;;;;;;;;;;;;;;;;;;4944106;29;20756;-79
2023/04/04 02:40:28;;;;;;;;;;;;;;;;;;4928285;29;19945;-79
2023/04/04 02:42:54;;;;;;;;;;;;;;;;;;4923073;29;19910;-78
2023/04/04 02:45:20;;;;;;;;;;;-1.90;99.90;;;;;;4925064;29;20304;-80
2023/04/04 02:47:46;;;;;;;;;;;;;;;;;;4931578;29;19911;-76
2023/04/04 02:50:12;;;;;;;;;;;;;;;;;;4934182;29;19929;-79
2023/04/04 02:52:38;;;;;;;;;;;;;;;;;;4931307;29;19918;-81
2023/04/04 02:55:03;;;;;;;;;;;-2.10;99.90;;;;;;4931542;29;20290;-81
2023/04/04 02:57:29;;;;;;;;;;;;;;;;;;4936313;29;19954;-80
2023/04/04 02:59:55;;;;;;;;;;;;;;;;;;4927299;29;20419;-81
2023/04/04 03:02:21;;;;;;;;;;;;;;;;;;4933742;29;19910;-81
2023/04/04 03:04:47;;;;;;;;;;;;;;;;;;4933620;29;19914;-80
2023/04/04 03:07:13;;;;;;;;;;;;;;;;;;4929814;29;20382;-79
2023/04/04 03:09:40;;;;;;;;;;;;;;;;;;4931109;29;20434;-81
2023/04/04 03:12:06;;;;;;;;;;;;;;;;;;4930420;29;19966;-80
2023/04/04 03:14:32;;;;;;;;;;;;;;;;;;4930200;29;19918;-81
2023/04/04 03:16:58;;;;;;;;;;;;;;;;;;4927080;29;19925;-79
2023/04/04 03:19:24;;;;;;;;;;;;;;;;;;4929753;29;20381;-80
2023/04/04 03:21:50;;;;;;;;;;;;;;;;;;4933715;29;19917;-79
2023/04/04 03:24:16;;;;;;;;;;;;;;;;;;4931134;29;20440;-82
2023/04/04 03:26:42;;;;;;;;;;;;;;;;;;4935120;29;19940;-81
2023/04/04 03:29:07;;;;;;;;;;;-2.10;99.90;;;;;;4932125;29;19915;-81
2023/04/04 03:31:33;;;;;;;;;;;;;;;;;;4932908;29;19915;-80
2023/04/04 03:33:59;;;;;;;;;;;;;;;;;;4924804;29;20500;-80
2023/04/04 03:36:25;;;;;;;;;;;;;;;;;;4927732;29;19915;-81
2023/04/04 03:38:51;;;;;;;;;;;;;;;;;;4933762;29;19978;-81
2023/04/04 03:41:17;;;;;;;;;;;;;;;;;;4935205;29;19914;-79
2023/04/04 03:43:44;;;;;;;;;;;;;;;;;;4947121;29;19926;-79
2023/04/04 03:46:10;;;;;;;;;;;;;;;;;;4945998;28;19918;-79
2023/04/04 03:48:36;;;;;;;;;;;;;;;;;;4945125;29;19906;-81
2023/04/04 03:51:02;;;;;;;;;;;;;;;;;;4927988;29;20299;-80
2023/04/04 03:53:28;;;;;;;;;;;;;;;;;;4929313;29;20046;-81
2023/04/04 03:55:54;;;;;;;;;;;;;;;;;;4927920;29;19934;-80
2023/04/04 03:58:21;;;;;;;;;;;;;;;;;;4928081;29;19958;-79
2023/04/04 04:00:47;;;;;;;;;;;;;;;;;;4925776;29;20340;-80
2023/04/04 04:03:13;;;;;;;;;;;;;;;;;;4930924;29;19922;-80
2023/04/04 04:05:39;;;;;;;;;;;;;;;;;;4930133;29;19942;-80
2023/04/04 04:08:05;;;;;;;;;;;;;;;;;;4931227;29;20001;-79
2023/04/04 04:10:31;;;;;;;;;;;;;;;;;;4938285;29;19918;-80
2023/04/04 04:12:57;;;;;;;;;;;;;;;;;;4929721;29;20396;-80
2023/04/04 04:15:23;;;;;;;;;;;;;;;;;;4928163;29;19918;-80
2023/04/04 04:17:49;;;;;;;;;;;;;;;;;;4933454;29;19910;-80
2023/04/04 04:20:15;;;;;;;;;;;;;;;;;;4928997;29;20151;-80
2023/04/04 04:22:41;;;;;;;;;;;;;;;;;;4936002;29;19910;-79
2023/04/04 04:25:07;;;;;;;;;;;;;;;;;;4934094;29;20127;-80
2023/04/04 04:27:33;;;;;;;;;;;;;;;;;;4934439;29;19918;-80
2023/04/04 04:29:59;;;;;;;;;;;;;;;;;;4924419;29;19989;-80
2023/04/04 04:32:25;;;;;;;;;;;-2.00;99.90;;;;;;4922469;29;20230;-80
2023/04/04 04:34:51;;;;;;;;;;;;;;;;;;4925764;29;19923;-80
2023/04/04 04:37:17;;;;;;;;;;;;;;;;;;4930065;29;19966;-79
2023/04/04 04:39:43;;;;;;;;;;;;;;;;;;4932372;29;19974;-79
2023/04/04 04:42:08;;;;;;;;;;;;;;;;;;4929839;29;20385;-80
2023/04/04 04:44:35;;;;;;;;;;;;;;;;;;4923105;29;19911;-79
2023/04/04 04:47:00;;;;;;;;;;;;;;;;;;4926197;29;20062;-78
2023/04/04 04:49:26;;;;;;;;;;;;;;;;;;4921013;29;21316;-76
2023/04/04 04:51:52;;;;;;;;;;;;;;;;;;4922975;29;19910;-77
2023/04/04 04:54:18;;;;;;;;;;;;;;;;;;4928611;29;19998;-76
2023/04/04 04:56:44;;;;;;;;;;;;;;;;;;4928971;29;20002;-77
2023/04/04 04:59:11;;;;;;;;;;;;;;;;;;4930275;29;19918;-76
2023/04/04 05:01:37;;;;;;;;;;;;;;;;;;4930838;29;19918;-77
2023/04/04 05:04:03;;;;;;;;;;;;;;;;;;4933170;29;19914;-77
2023/04/04 05:06:29;;;;;;;;;;;;;;;;;;4926128;29;20353;-77
2023/04/04 05:08:55;;;;;;;;;;;;;;;;;;4918768;29;19918;-77
2023/04/04 05:11:21;;;;;;;;;;;;;;;;;;4927367;29;20268;-77
2023/04/04 05:13:47;;;;;;;;;;;;;;;;;;4927399;29;19961;-76
2023/04/04 05:16:13;;;;;;;;;;;;;;;;;;4927751;29;19918;-78
2023/04/04 05:18:39;;;;;;;;;;;;;;;;;;4930673;29;19926;-77
2023/04/04 05:21:05;;;;;;;;;;;;;;;;;;4929962;29;19922;-77
2023/04/04 05:23:31;;;;;;;;;;;;;;;;;;4930515;29;20423;-78
2023/04/04 05:25:57;;;;;;;;;;;;;;;;;;4926628;29;19927;-77
2023/04/04 05:28:23;;;;;;;;;;;;;;;;;;4927328;29;20031;-78
2023/04/04 05:30:49;;;;;;;;;;;;;;;;;;4927422;29;19934;-79
2023/04/04 05:33:15;;;;;;;;;;;;;;;;;;4933500;29;19911;-79
2023/04/04 05:35:42;;;;;;;;;;;;;;;;;;4933982;29;19990;-78
2023/04/04 05:38:08;;;;;;;;;;;;;;;;;;4927854;29;21889;-77
2023/04/04 05:40:34;;;;;;;;;;;;;;;;;;4927995;29;20316;-77
2023/04/04 05:43:03;;;;;;;;;;;;;;;;;;4919907;29;19922;-78
2023/04/04 05:45:28;;;;;;;;;;;;;;;;;;4925757;29;20402;-77
2023/04/04 05:47:54;;;;;;;;;;;;;;;;;;4931874;29;20007;-78
2023/04/04 05:50:20;;;;;;;;;;;;;;;;;;4932388;29;20343;-76
2023/04/04 05:52:46;;;;;;;;;;;;;;;;;;4932539;29;19911;-76
2023/04/04 05:55:12;;;;;;;;;;;;;;;;;;4926748;29;19915;-77
2023/04/04 05:57:46;;;;;;;;;;;-1.30;99.90;;;;;;4934158;29;20296;-77
2023/04/04 06:00:11;;;;;;;;;;;;;;;;;;4926033;29;19910;-77
2023/04/04 06:02:37;;;;;;;;;;;;;;;;;;4931832;29;20050;-78
2023/04/04 06:05:03;;;;;;;;;;;;;;;;;;4938539;29;20169;-77
2023/04/04 06:07:29;;;;;;;;;;;;;;;;;;4935399;29;20323;-78
2023/04/04 06:09:55;;;;;;;;;;;;;;;;;;4927012;29;19930;-78
2023/04/04 06:12:21;;;;;;;;;;;;;;;;;;4929473;29;19941;-78
2023/04/04 06:14:47;;;;;;;;;;;;;;;;;;4931776;29;19922;-77
2023/04/04 06:17:12;;;;;;;;;;;;;;;;;;4925078;29;19917;-77
2023/04/04 06:19:38;;;;;;;;;;;;;;;;;;4931380;29;19930;-77
2023/04/04 06:22:04;;;;;;;;;;;;;;;;;;4930298;29;19910;-77
2023/04/04 06:24:30;;;;;;;;;;;-0.80;99.90;;;;;;4926332;29;20001;-77
2023/04/04 06:26:55;;;;;;;;;;;-0.90;99.90;;;;;;4927091;29;20331;-78
2023/04/04 06:29:21;;;;;;;;;;;;;;;;;;4928833;29;20379;-77
2023/04/04 06:31:47;;;;;;;;;;;;;;;;;;4928219;29;19930;-77
2023/04/04 06:34:13;;;;;;;;;;;;;;;;;;4931733;29;19919;-78
2023/04/04 06:36:39;;;;;;;;;;;;;;;;;;4933917;29;20299;-78
2023/04/04 06:39:05;;;;;;;;;;;;;;;;;;4930411;29;21501;-78
2023/04/04 06:41:31;;;;;;;;;;;;;;;;;;4931407;29;19988;-78
2023/04/04 06:43:57;;;;;;;;;;;;;;;;;;4932434;29;20158;-79
2023/04/04 06:46:24;;;;;;;;;;;;;;;;;;4940480;29;19914;-82
2023/04/04 06:48:49;;;;;;;;;;;;;;;;;;4947152;29;19915;-77
2023/04/04 06:51:16;;;;;;;;;;;;;;;;;;4932312;29;19922;-79
2023/04/04 06:53:42;;;;;;;;;;;;;;;;;;4941565;29;19910;-79
2023/04/04 06:56:08;;;;;;;;;;;;;;;;;;4937792;29;19907;-79
2023/04/04 06:58:34;;;;;;;;;;;;;;;;;;4936007;29;20199;-79
2023/04/04 07:01:00;;;;;;;;;;;;;;;;;;4934270;29;19910;-80
2023/04/04 07:03:26;;;;;;;;;;;;;;;;;;4932368;29;20377;-78
2023/04/04 07:05:52;;;;;;;;;;;;;;;;;;4934947;29;19915;-78
2023/04/04 07:08:18;;;;;;;;;;;;;;;;;;4931053;29;19966;-80
2023/04/04 07:10:44;;;;;;;;;;;;;;;;;;4932586;29;20315;-79
2023/04/04 07:13:10;;;;;;;;;;;;;;;;;;4933887;29;20139;-80
2023/04/04 07:15:36;;;;;;;;;;;;;;;;;;4930451;29;19910;-80
2023/04/04 07:18:02;;;;;;;;;;;;;;;;;;4935786;29;20288;-78
2023/04/04 07:20:28;;;;;;;;;;;;;;;;;;4919471;29;20458;-79
2023/04/04 07:22:53;;;;;;;;;;;;;;;;;;4928908;29;20410;-80
2023/04/04 07:25:19;;;;;;;;;;;;;;;;;;4933575;29;19911;-79
2023/04/04 07:27:45;;;;;;;;;;;;;;;;;;4933942;29;19919;-79
2023/04/04 07:30:11;;;;;;;;;;;;;;;;;;4935029;29;19933;-79
2023/04/04 07:32:37;;;;;;;;;;;;;;;;;;4930542;29;19913;-79
2023/04/04 07:35:04;;;;;;;;;;;;;;;;;;4931668;29;19918;-79
2023/04/04 07:37:29;;;;;;;;;;;;;;;;;;4931449;29;20387;-79
2023/04/04 07:39:55;;;;;;;;;;;;;;;;;;4919174;29;19938;-79
2023/04/04 07:42:24;;;;;;;;;;;;;;;;;;4934347;29;19994;-80
2023/04/04 07:44:50;;;;;;;;;;;;;;;;;;4940288;29;20290;-79
2023/04/04 07:47:16;;;;;;;;;;;;;;;;;;4941791;29;19907;-79
2023/04/04 07:49:42;;;;;;;;;;;;;;;;;;4932024;29;19961;-79
2023/04/04 07:52:08;;;;;;;;;;;;;;;;;;4938342;29;19910;-79
2023/04/04 07:54:34;;;;;;;;;;;3.00;99.90;;;;;;4939060;29;20250;-79
2023/04/04 07:56:59;;;;;;;;;;;3.60;99.90;;;;;;4934098;29;19919;-80
2023/04/04 07:59:26;;;;;;;;;;;;;;;;;;4938283;29;20371;-79
2023/04/04 08:01:51;;;;;;;;;;;;;;;;;;4926173;29;19915;-80
2023/04/04 08:04:18;;;;;;;;;;;;;;;;;;4931907;29;19910;-79
2023/04/04 08:06:43;;;;;;;;;;;;;;;;;;4933525;29;20081;-80
2023/04/04 08:09:09;;;;;;;;;;;;;;;;;;4937741;29;19966;-80
2023/04/04 08:11:35;;;;;;;;;;;;;;;;;;4936311;29;19929;-79
2023/04/04 08:14:01;;;;;;;;;;;;;;;;;;4938938;29;19942;-79
2023/04/04 08:16:27;;;;;;;;;;;;;;;;;;4939616;29;19917;-80
2023/04/04 08:18:53;;;;;;;;;;;;;;;;;;4938735;29;19914;-81
2023/04/04 08:21:19;;;;;;;;;;;;;;;;;;4935356;29;19910;-80
2023/04/04 08:23:45;;;;;;;;;;;;;;;;;;4934505;29;20434;-82
2023/04/04 08:26:11;;;;;;;;;;;;;;;;;;4933080;29;19919;-80
2023/04/04 08:28:37;;;;;;;;;;;;;;;;;;4934162;29;19929;-81
2023/04/04 08:31:03;;;;;;;;;;;4.60;97.30;;;;;;4939995;29;19950;-81
2023/04/04 08:33:28;;;;;;;;;;;;;;;;;;4936684;29;19943;-80
2023/04/04 08:35:56;;;;;;;;;;;;;;;;;;4940022;29;19910;-81
2023/04/04 08:38:22;;;;;;;;;;;;;;;;;;4938841;29;19935;-81
2023/04/04 08:40:47;;;;;;;;;;;;;;;;;;4939313;29;19910;-81
2023/04/04 08:43:13;;;;;;;;;;;;;;;;;;4940009;29;19922;-81
2023/04/04 08:45:39;;;;;;;;;;;;;;;;;;4936091;29;20026;-81
2023/04/04 08:48:05;;;;;;;;;;;;;;;;;;4936879;29;20402;-81
2023/04/04 08:50:31;;;;;;;;;;;;;;;;;;4939203;29;19997;-81
2023/04/04 08:52:58;;;;;;;;;;;;;;;;;;4938967;29;19919;-80
2023/04/04 08:55:24;;;;;;;;;;;;;;;;;;4948972;29;19962;-81
2023/04/04 08:57:49;;;;;;;;;;;;;;;;;;4952413;29;20185;-80
2023/04/04 09:00:16;;;;;;;;;;;;;;;;;;4946331;29;19930;-80
2023/04/04 09:02:43;;;;;;;;;;;;;;;;;;4939962;29;19910;-80
2023/04/04 09:05:09;;;;;;;;;;;;;;;;;;4935058;29;19914;-79
2023/04/04 09:07:35;;;;;;;;;;;;;;;;;;4935726;29;19915;-78
2023/04/04 09:10:01;;;;;;;;;;;;;;;;;;4935374;29;19930;-79
2023/04/04 09:12:28;;;;;;;2.30;0.70;;;;;;;;;;4928495;29;19918;-81
2023/04/04 09:14:55;;;;;;;3.65;0.50;;;;;;;;;;4927018;29;20472;-77
2023/04/04 09:17:22;;;;;;;2.90;0.68;;;;;;;;;;4924138;29;20531;-80
2023/04/04 09:19:48;;;;;;;3.30;1.80;;;;;;;;;;4924820;29;20282;-80
2023/04/04 09:22:16;;;;;;;2.03;0.98;;;;;;;;;;4923815;29;20099;-79
2023/04/04 09:24:42;;;;;;;2.55;1.45;;;;;;;;;;4930290;29;20731;-79
2023/04/04 09:27:10;;;;;;;2.53;1.30;;;;;;;;;;4928369;29;20039;-80
2023/04/04 09:29:39;;;;;;;5.68;1.13;;;;;;;;;;4927044;29;20031;-79
2023/04/04 09:32:09;;;;;;;1.42;0.70;;;;;;;;;;4935023;29;20027;-79
2023/04/04 09:34:36;;;;;;;2.67;1.20;;;;;;;;;;4932014;29;20122;-79
2023/04/04 09:37:03;;;;;;;2.85;0.75;;;;;;;;;;4930185;29;20119;-80
2023/04/04 09:39:30;;;;;;;3.15;1.05;;;;;;;;;;4928160;29;20036;-79
2023/04/04 09:41:57;;;;;;;3.17;0.98;;;;;;;;;;4930180;29;20103;-79
2023/04/04 09:44:24;;;;;;;24.90;8.75;;;;;;;;;;4932832;29;20039;-79
2023/04/04 09:46:51;;;;;;;3.70;1.83;;;;;;;;;;4929891;29;20050;-79
2023/04/04 09:49:21;;;;;;;4.85;1.13;;;;;;;;;;4924004;29;23854;-79
2023/04/04 09:51:53;;;;;;;2.80;1.20;;;;;;;;;;4928344;29;20055;-78
2023/04/04 09:54:23;;;;;;;3.30;0.73;;;;;;;;;;4932050;29;20038;-79
2023/04/04 09:56:49;;;;;;;4.45;1.27;;;;;;;;;;4923849;29;20035;-79
2023/04/04 09:59:16;;;;;;;6.82;1.42;;;;;;;;;;4925604;29;20048;-78
2023/04/04 10:01:44;;;;;;;1.65;0.68;;;;;;;;;;4924626;29;20254;-79
2023/04/04 10:04:10;;;;;;;2.92;1.25;;;;;;;;;;4931162;29;20043;-79
2023/04/04 10:06:37;;;;;;;2.58;1.25;;;;;;;;;;4932010;29;20047;-79
2023/04/04 10:09:04;;;;;;;1.35;0.90;;;;;;;;;;4926637;29;21074;-79
2023/04/04 10:11:30;;;;;;;2.80;1.42;;;;;;;;;;4938725;29;20047;-79
2023/04/04 10:13:57;;;;;;;2.15;1.17;;;;;;;;;;4927774;29;20480;-79
2023/04/04 10:16:24;;;;;;;1.10;0.60;;;;;;;;;;4924044;29;20031;-79
2023/04/04 10:18:51;;;;;;;1.70;0.70;;;;;;;;;;4921502;29;21201;-79
2023/04/04 10:21:17;;;;;;;4.57;1.35;;;;;;;;;;4925442;29;20143;-79
2023/04/04 10:23:46;;;;;;;2.72;1.30;;;;;;;;;;4924404;29;20135;-79
2023/04/04 10:26:12;;;;;;;1.35;1.13;;;;;;;;;;4926229;29;20023;-79
2023/04/04 10:28:38;;;;;;;2.72;0.73;;;;;;;;;;4929127;29;20067;-79
2023/04/04 10:31:23;;;;;;;2.53;1.27;;;6.90;76.50;;;;;;4930606;29;20048;-79
2023/04/04 10:34:04;;;;;;;3.42;1.00;;;;;;;;;;4925694;29;20059;-79
2023/04/04 10:36:43;;;;;;;1.67;0.75;;;;;;;;;;4928198;29;20075;-78
2023/04/04 10:39:23;;;;;;;3.10;1.10;;;8.00;77.70;;;;;;4929766;29;20107;-78
2023/04/04 10:41:50;;;;;;;2.20;0.77;;;;;;;;;;4928813;29;20154;-78
2023/04/04 10:44:19;;;;;;;3.88;1.45;;;;;;;;;;4925149;29;20031;-79
2023/04/04 10:46:47;;;;;;;2.60;1.00;;;;;;;;;;4920549;29;20264;-78
2023/04/04 10:49:14;;;;;;;1.15;0.70;;;;;;;;;;4926627;29;20095;-78
2023/04/04 10:51:41;;;;;;;3.42;1.17;;;;;;;;;;4925612;29;20043;-79
2023/04/04 10:54:07;;;;;;;2.35;0.90;;;;;;;;;;4933645;29;20060;-78
2023/04/04 10:56:34;;;;;;;3.13;0.70;;;;;;;;;;4933396;29;20062;-80
2023/04/04 10:59:12;;;;;;;1.98;0.80;;;;;;;;;;4935268;29;20118;-79
2023/04/04 11:01:47;;;;;;;3.50;1.25;;;;;;;;;;4932553;29;20119;-80
2023/04/04 11:04:21;;;;;;;3.50;1.27;;;;;;;;;;4924327;29;20487;-80
2023/04/04 11:07:06;;;;;;;4.15;0.98;;;;;;;;;;4948136;29;20038;-79
2023/04/04 11:09:47;;;;;;;1.80;0.63;;;;;;;;;;4949940;29;20054;-79
2023/04/04 11:12:22;;;;;;;3.28;0.82;;;;;;;;;;4935914;29;20046;-79
2023/04/04 11:15:17;;;;;;;5.60;1.30;;;;;;;;;;4924131;29;20035;-80
2023/04/04 11:17:51;;;;;;;6.57;1.33;;;;;;;;;;4918038;29;20039;-80
2023/04/04 11:20:20;;;;;;;1.88;0.70;;;;;;;;;;4926824;29;20059;-80
2023/04/04 11:22:48;;;;;;;1.80;1.05;;;;;;;;;;4929407;29;20500;-81
2023/04/04 11:25:26;;;;;;;1.50;0.85;;;;;;;;;;4929544;29;20028;-80
2023/04/04 11:27:57;;;;;;;1.65;0.95;;;;;;;;;;4928721;29;20067;-80
2023/04/04 11:30:23;;;;;;;2.95;0.73;;;;;;;;;;4933426;29;20054;-80
2023/04/04 11:32:49;;;;;;;0.80;0.80;;;;;;;;;;4934149;29;20069;-80
2023/04/04 11:35:16;;;;;;;3.17;1.13;;;;;;;;;;4928032;29;20031;-81
2023/04/04 11:37:43;;;;;;;4.95;1.00;;;;;;;;;;4933397;29;20241;-80
2023/04/04 11:40:10;;;;;;;2.90;1.10;;;;;;;;;;4925668;29;20032;-80
2023/04/04 11:42:40;;;;;;;1.85;0.85;;;;;;;;;;4932187;29;20032;-79
2023/04/04 11:45:07;;;;;;;3.38;1.08;;;;;;;;;;4929383;29;20042;-79
2023/04/04 11:47:33;;;;;;;2.33;1.17;;;;;;;;;;4931499;29;20063;-79
2023/04/04 11:50:00;;;;;;;2.97;1.00;;;;;;;;;;4922709;29;20036;-80
2023/04/04 11:52:32;;;;;;;3.90;1.60;;;;;;;;;;4928051;29;20063;-80
2023/04/04 11:54:59;;;;;;;2.75;1.33;;;;;;;;;;4922575;29;20059;-79
2023/04/04 11:57:25;;;;;;;2.90;1.33;;;;;;;;;;4934281;29;20024;-79
2023/04/04 11:59:51;;;;;;;;;;;;;;;;;;4919797;29;20373;-79
2023/04/04 12:02:16;;;;;;;;;;;;;;;;;;4929833;29;20014;-79
2023/04/04 12:04:46;;;;;;;;;;;;;;;;;;4937511;29;19949;-80
2023/04/04 12:07:12;;;;;;;;;;;;;;;;;;4929025;29;20465;-81
2023/04/04 12:09:38;;;;;;;;;;;;;;;;;;4931328;29;20351;-79
2023/04/04 12:12:06;;;;;;;;;;;9.90;73.30;;;;;;4921786;29;19921;-79
2023/04/04 12:14:32;;;;;;;;;;;;;;;;;;4928157;29;19911;-79
2023/04/04 12:17:01;;;;;;;;;;;;;;;;;;4921786;29;19911;-80
2023/04/04 12:19:27;;;;;;;;;;;;;;;;;;4924703;29;19915;-78
2023/04/04 12:21:53;;;;;;;;;;;8.90;76.80;;;;;;4934515;29;19922;-79
2023/04/04 12:24:19;;;;;;;;;;;9.00;73.00;;;;;;4931522;29;20359;-79
2023/04/04 12:26:45;;;;;;;;;;;;;;;;;;4931897;29;20367;-79
2023/04/04 12:29:10;;;;;;;;;;;;;;;;;;4925224;29;19925;-78
2023/04/04 12:31:36;;;;;;;;;;;;;;;;;;4935739;29;20377;-79
2023/04/04 12:34:02;;;;;;;;;;;8.90;74.50;;;;;;4939539;29;20275;-78
2023/04/04 12:36:28;;;;;;;;;;;;;;;;;;4939781;29;20282;-78
2023/04/04 12:38:55;;;;;;;;;;;;;;;;;;4931858;29;19915;-79
2023/04/04 12:41:21;;;;;;;;;;;;;;;;;;4932845;29;19915;-78
2023/04/04 12:43:47;;;;;;;;;;;;;;;;;;4938963;29;20310;-78
2023/04/04 12:46:12;;;;;;;;;;;8.80;75.30;;;;;;4939876;29;19914;-78
2023/04/04 12:48:38;;;;;;;;;;;8.70;75.40;;;;;;4934642;29;20279;-79
2023/04/04 12:51:05;;;;;;;;;;;8.60;74.70;;;;;;4932904;29;19965;-78
2023/04/04 12:53:31;;;;;;;;;;;;;;;;;;4926492;29;19914;-78
2023/04/04 12:56:03;;;;;;;;;;;8.30;76.90;;;;;;4938599;29;20362;-78
2023/04/04 12:58:30;;;;;;;2.72;0.80;;;;;;;;;;4935121;29;19914;-78
2023/04/04 13:00:59;;;;;;;2.78;1.40;;;;;;;;;;4940035;29;20036;-79
2023/04/04 13:03:25;;;;;;;2.33;1.20;;;;;;;;;;4937766;29;20275;-78
2023/04/04 13:05:51;;;;;;;1.90;1.20;;;;;;;;;;4941864;29;20035;-78
2023/04/04 13:08:18;;;;;;;3.10;1.20;;;;;;;;;;4936757;29;20035;-79
2023/04/04 13:11:01;;;;;;;4.10;0.88;;;8.40;75.50;;;;;;4937933;29;20031;-79
2023/04/04 13:13:30;;;;;;;2.67;1.15;;;8.40;75.70;;;;;;4934828;29;20100;-79
2023/04/04 13:15:56;;;;;;;1.95;0.98;;;;;;;;;;4937406;29;20095;-79
2023/04/04 13:18:23;;;;;;;3.13;1.33;;;;;;;;;;4936894;29;20016;-77
2023/04/04 13:20:52;;;;;;;;;;;8.40;77.10;;;;;;4938369;29;20034;-78
2023/04/04 13:23:18;;;;;;;;;;;;;;;;;;4938361;29;19911;-78
2023/04/04 13:25:44;;;;;;;;;;;;;;;;;;4939047;29;19978;-78
2023/04/04 13:28:10;;;;;;;;;;;;;;;;;;4937577;29;19929;-78
2023/04/04 13:30:37;;;;;;;;;;;;;;;;;;4939146;29;19986;-79
2023/04/04 13:33:02;;;;;;;;;;;8.40;76.00;;;;;;4939003;29;19922;-78
2023/04/04 13:35:28;;;;;;;;;;;8.30;77.70;;;;;;4939565;29;19911;-78
2023/04/04 13:37:54;;;;;;;;;;;;;;;;;;4936935;29;19918;-79
2023/04/04 13:40:20;;;;;;;;;;;;;;;;;;4936934;29;19982;-79
2023/04/04 13:42:45;;;;;;;;;;;;;;;;;;4941277;29;19917;-79
2023/04/04 13:45:12;;;;;;;;;;;;;;;;;;4936357;29;19989;-79
2023/04/04 13:47:37;;;;;;;;;;;9.00;78.20;;;;;;4929518;29;19915;-79
2023/04/04 13:50:03;;;;;;;;;;;;;;;;;;4937125;29;19925;-78
2023/04/04 13:52:29;;;;;;;;;;;;;;;;;;4937865;29;19914;-79
2023/04/04 13:54:56;;;;;;;;;;;;;;;;;;4937022;29;19965;-79
2023/04/04 13:57:22;;;;;;;;;;;;;;;;;;4937266;29;19914;-79
2023/04/04 13:59:48;;;;;;;;;;;;;;;;;;4939720;29;19941;-79
2023/04/04 14:02:14;;;;;;;;;;;;;;;;;;4935742;29;20409;-78
2023/04/04 14:04:39;;;;;;;;;;;;;;;;;;4937586;29;19927;-79
2023/04/04 14:07:05;;;;;;;;;;;;;;;;;;4934874;29;19917;-79
2023/04/04 14:09:31;;;;;;;;;;;8.60;76.10;;;;;;4936054;29;19914;-79
2023/04/04 14:11:57;;;;;;;;;;;;;;;;;;4935995;29;19999;-79
2023/04/04 14:14:23;;;;;;;;;;;;;;;;;;4934536;29;19918;-79
2023/04/04 14:16:49;;;;;;;;;;;;;;;;;;4935606;29;20048;-78
2023/04/04 14:19:15;;;;;;;;;;;;;;;;;;4938800;29;19915;-78
2023/04/04 14:21:40;;;;;;;;;;;8.30;77.60;;;;;;4941514;29;20326;-78
2023/04/04 14:24:06;;;;;;;1.80;1.20;;;;;;;;;;4942174;29;20001;-78
2023/04/04 14:26:32;;;;;;;2.83;1.42;;;;;;;;;;4939209;29;20492;-78
2023/04/04 14:28:58;;;;;;;3.15;1.20;;;7.30;92.80;;;;;;4939173;29;20031;-80
2023/04/04 14:31:24;;;;;;;3.08;1.60;;;;;;;;;;4936375;29;20556;-79
2023/04/04 14:33:50;;;;;;;3.05;1.75;;;;;;;;;;4931714;29;20024;-79
2023/04/04 14:36:17;;;;;;;7.22;1.55;;;;;;;;;;4936387;29;20038;-79
2023/04/04 14:38:43;;;;;;;2.67;1.58;;;;;;;;;;4929843;29;20038;-78
2023/04/04 14:41:09;;;;;;;3.90;1.75;;;;;;;;;;4939474;29;20031;-80
2023/04/04 14:43:36;;;;;;;2.60;1.33;;;;;;;;;;4928055;29;20456;-80
2023/04/04 14:46:02;;;;;;;10.43;2.00;;;;;;;;;;4929525;29;20047;-79
2023/04/04 14:48:28;;;;;;;3.88;1.42;;;;;;;;;;4920947;29;20943;-81
2023/04/04 14:50:54;;;;;;;3.70;1.52;;;;;;;;;;4928949;29;20039;-82
2023/04/04 14:53:20;;;;;;;1.88;1.30;;;;;;;;;;4932292;29;20787;-80
2023/04/04 14:55:46;;;;;;;6.32;1.75;;;;;;;;;;4929880;29;20036;-77
2023/04/04 14:58:12;;;;;;;5.28;2.28;;;;;;;;;;4928746;29;20702;-78
2023/04/04 15:00:38;;;;;;;3.88;1.90;;;;;;;;;;4933141;29;21925;-78
2023/04/04 15:03:06;;;;;;;5.23;1.83;;;;;;;;;;4928699;29;20420;-77
2023/04/04 15:05:32;;;;;;;5.68;1.98;;;;;;;;;;4929463;29;20415;-78
2023/04/04 15:07:58;;;;;;;7.07;3.10;;;;;;;;;;4927123;29;20430;-79
2023/04/04 15:10:24;;;;;;;3.15;1.88;;;;;;;;;;4929869;29;21090;-78
2023/04/04 15:12:50;;;;;;;3.05;1.70;;;;;;;;;;4923708;29;20403;-78
2023/04/04 15:15:16;;;;;;;3.75;1.75;;;;;;;;;;4929237;29;20419;-78
2023/04/04 15:17:42;;;;;;;3.42;1.48;;;8.40;92.40;;;;;;4932580;29;20463;-79
2023/04/04 15:20:08;;;;;;;4.80;1.93;;;;;;;;;;4924494;29;20415;-78
2023/04/04 15:22:35;;;;;;;5.15;1.83;;;;;;;;;;4924206;29;20426;-78
2023/04/04 15:25:00;;;;;;;6.50;5.32;;;;;;;;;;4933469;29;20447;-78
2023/04/04 15:27:27;;;;;;;5.93;3.60;;;;;;;;;;4935979;29;20411;-78
2023/04/04 15:29:53;;;;;;;3.20;2.05;;;;;;;;;;4921102;29;20494;-79
2023/04/04 15:32:19;;;;;;;3.53;1.60;;;;;;;;;;4924888;29;20423;-78
2023/04/04 15:34:45;;;;;;;4.75;1.85;;;;;;;;;;4922646;29;20930;-78
2023/04/04 15:37:11;;;;;;;4.88;1.52;;;;;;;;;;4925626;29;20931;-79
2023/04/04 15:39:37;;;;;;;4.78;1.63;;;;;;;;;;4927220;29;20494;-78
2023/04/04 15:42:03;;;;;;;4.57;2.22;;;;;;;;;;4923581;29;21361;-79
2023/04/04 15:44:29;;;;;;;4.13;1.92;;;;;;;;;;4922876;29;20411;-78
2023/04/04 15:46:55;;;;;;;5.28;2.42;;;;;;;;;;4921785;29;20419;-78
2023/04/04 15:49:21;;;;;;;4.13;2.13;;;;;;;;;;4920099;29;20451;-78
2023/04/04 15:51:47;;;;;;;3.90;1.65;;;;;;;;;;4926977;29;20970;-79